Time;durP1;ratioP1;P1;durP2;ratioP2;P2;SDS_P1;SDS_P2;PMS_P1;PMS_P2;Temp;Humidity;BMP_temperature;BMP_pressure;BME280_temperature;BME280_humidity;BME280_pressure;Samples;Min_cycle;Max_cycle;Signal;HPM_P1;HPM_P2
2023/04/24 00:00:33;;;;;;;3.70;1.52;;;15.20;86.80;;;;;;5060605;28;20511;-83
2023/04/24 00:02:59;;;;;;;4.40;1.60;;;15.20;87.00;;;;;;5043384;28;20035;-84
2023/04/24 00:05:24;;;;;;;3.33;1.25;;;15.20;87.10;;;;;;5043602;28;20033;-83
2023/04/24 00:07:54;;;;;;;4.72;1.40;;;15.20;87.00;;;;;;5042990;28;20057;-83
2023/04/24 00:10:19;;;;;;;2.95;1.30;;;15.20;86.90;;;;;;5039374;28;20033;-83
2023/04/24 00:12:45;;;;;;;5.00;1.55;;;15.20;86.80;;;;;;5039097;28;20029;-83
2023/04/24 00:15:11;;;;;;;3.58;1.30;;;15.20;86.90;;;;;;5041917;28;20029;-84
2023/04/24 00:17:36;;;;;;;3.20;1.20;;;15.20;86.90;;;;;;5041675;28;20055;-84
2023/04/24 00:20:04;;;;;;;4.57;1.30;;;15.20;86.90;;;;;;5040851;28;20386;-83
2023/04/24 00:22:30;;;;;;;3.22;1.10;;;15.20;86.90;;;;;;5041296;28;20045;-83
2023/04/24 00:24:56;;;;;;;4.20;1.30;;;15.20;86.70;;;;;;5041471;28;20107;-83
2023/04/24 00:27:22;;;;;;;3.15;1.20;;;15.20;86.80;;;;;;5040910;28;20025;-83
2023/04/24 00:29:48;;;;;;;3.17;1.20;;;15.20;86.80;;;;;;5040737;28;20116;-83
2023/04/24 00:32:14;;;;;;;3.95;1.58;;;15.20;86.80;;;;;;5040812;28;20031;-83
2023/04/24 00:34:39;;;;;;;3.83;1.05;;;15.10;86.20;;;;;;5037886;28;20464;-83
2023/04/24 00:37:05;;;;;;;3.22;1.00;;;15.20;86.50;;;;;;5038598;28;20028;-83
2023/04/24 00:39:31;;;;;;;2.30;1.20;;;15.20;86.70;;;;;;5040341;28;20096;-84
2023/04/24 00:41:57;;;;;;;3.17;1.10;;;15.10;86.40;;;;;;5040125;28;20025;-83
2023/04/24 00:44:23;;;;;;;2.15;1.00;;;15.10;86.40;;;;;;5039311;28;20025;-83
2023/04/24 00:46:54;;;;;;;3.13;1.05;;;15.10;86.50;;;;;;5039174;28;20023;-83
2023/04/24 00:49:21;;;;;;;3.17;1.30;;;15.10;86.70;;;;;;5039069;28;20409;-84
2023/04/24 00:51:47;;;;;;;3.33;1.10;;;15.10;86.70;;;;;;5038984;28;20029;-84
2023/04/24 00:54:13;;;;;;;3.70;1.10;;;15.10;86.50;;;;;;5057354;28;20131;-84
2023/04/24 00:56:40;;;;;;;3.05;1.05;;;15.10;86.70;;;;;;5039070;28;20033;-84
2023/04/24 00:59:06;;;;;;;2.38;1.00;;;15.10;86.70;;;;;;5037353;28;20021;-83
2023/04/24 01:01:32;;;;;;;1.90;0.98;;;15.10;86.80;;;;;;5036478;28;20029;-83
2023/04/24 01:03:58;;;;;;;2.67;1.20;;;15.10;86.80;;;;;;5036708;28;20148;-83
2023/04/24 01:06:28;;;;;;;1.85;0.88;;;15.10;86.80;;;;;;5036492;28;20053;-83
2023/04/24 01:08:55;;;;;;;2.47;0.98;;;15.10;87.30;;;;;;5036628;28;20033;-83
2023/04/24 01:11:21;;;;;;;3.55;1.13;;;15.10;86.90;;;;;;5036319;28;20025;-83
2023/04/24 01:13:48;;;;;;;3.08;1.02;;;15.10;86.80;;;;;;5054295;28;20029;-83
2023/04/24 01:16:15;;;;;;;4.10;1.05;;;15.10;86.80;;;;;;5055856;28;20021;-83
2023/04/24 01:18:41;;;;;;;3.60;1.10;;;15.10;86.80;;;;;;5037769;28;20400;-83
2023/04/24 01:21:08;;;;;;;2.78;1.10;;;15.10;86.80;;;;;;5037565;28;20028;-83
2023/04/24 01:23:34;;;;;;;2.03;0.90;;;15.10;86.70;;;;;;5037501;28;20029;-83
2023/04/24 01:26:00;;;;;;;2.58;1.10;;;15.10;86.70;;;;;;5037817;28;20103;-83
2023/04/24 01:28:26;;;;;;;2.33;0.90;;;15.10;86.80;;;;;;5036644;28;20504;-81
2023/04/24 01:30:52;;;;;;;2.47;0.93;;;15.00;86.60;;;;;;5037025;28;20036;-83
2023/04/24 01:33:18;;;;;;;2.35;0.90;;;15.10;86.60;;;;;;5036670;28;20215;-83
2023/04/24 01:35:44;;;;;;;2.42;1.00;;;15.00;86.70;;;;;;5035880;28;20135;-83
2023/04/24 01:38:09;;;;;;;1.23;0.80;;;15.00;86.60;;;;;;5036004;28;20025;-83
2023/04/24 01:40:35;;;;;;;3.38;1.00;;;15.00;86.70;;;;;;5036057;28;20013;-83
2023/04/24 01:43:00;;;;;;;1.50;0.80;;;15.10;86.80;;;;;;5036220;28;20489;-83
2023/04/24 01:45:26;;;;;;;2.45;0.95;;;15.10;86.80;;;;;;5036582;28;20444;-83
2023/04/24 01:47:52;;;;;;;1.55;0.88;;;15.00;86.80;;;;;;5036570;28;20064;-83
2023/04/24 01:50:18;;;;;;;3.05;0.90;;;15.10;86.80;;;;;;5036183;28;20234;-83
2023/04/24 01:52:44;;;;;;;3.38;1.00;;;15.10;86.50;;;;;;5035565;28;20079;-83
2023/04/24 01:55:10;;;;;;;2.05;1.00;;;15.00;86.80;;;;;;5035427;28;20082;-83
2023/04/24 01:57:36;;;;;;;2.92;0.93;;;15.00;86.80;;;;;;5035853;28;20032;-83
2023/04/24 02:00:04;;;;;;;1.90;0.90;;;15.00;86.80;;;;;;5035254;28;20017;-83
2023/04/24 02:02:29;;;;;;;1.88;0.90;;;15.00;86.60;;;;;;5035719;28;20028;-83
2023/04/24 02:04:56;;;;;;;2.30;0.90;;;15.00;86.80;;;;;;5035938;28;20029;-83
2023/04/24 02:07:22;;;;;;;1.67;0.75;;;15.00;86.80;;;;;;5035419;28;20103;-83
2023/04/24 02:09:48;;;;;;;2.65;1.05;;;15.00;86.70;;;;;;5035269;28;20083;-82
2023/04/24 02:12:14;;;;;;;2.80;1.00;;;15.00;86.70;;;;;;5035139;28;20025;-83
2023/04/24 02:14:40;;;;;;;2.25;0.88;;;15.00;86.80;;;;;;5036768;28;20037;-84
2023/04/24 02:17:06;;;;;;;1.98;0.80;;;15.00;86.80;;;;;;5043042;28;20093;-84
2023/04/24 02:19:32;;;;;;;2.35;1.00;;;15.00;86.90;;;;;;5042549;28;20062;-84
2023/04/24 02:21:57;;;;;;;2.35;0.85;;;15.00;86.80;;;;;;5042546;28;20245;-84
2023/04/24 02:24:23;;;;;;;2.50;0.82;;;15.00;86.80;;;;;;5060145;28;20021;-84
2023/04/24 02:26:48;;;;;;;1.70;0.80;;;15.00;86.80;;;;;;5041651;28;20021;-83
2023/04/24 02:29:14;;;;;;;2.47;0.93;;;15.00;86.70;;;;;;5035788;28;20020;-83
2023/04/24 02:31:40;;;;;;;1.98;0.85;;;15.00;86.70;;;;;;5038677;28;20031;-84
2023/04/24 02:34:05;;;;;;;2.05;0.90;;;15.00;86.80;;;;;;5041002;28;20053;-81
2023/04/24 02:36:31;;;;;;;3.35;1.00;;;15.00;86.80;;;;;;5040810;28;20025;-84
2023/04/24 02:38:57;;;;;;;1.95;0.90;;;15.00;86.80;;;;;;5039928;28;20394;-81
2023/04/24 02:41:22;;;;;;;2.72;1.08;;;15.00;86.90;;;;;;5039583;28;20108;-84
2023/04/24 02:43:48;;;;;;;2.80;1.00;;;15.00;86.70;;;;;;5041695;28;20021;-86
2023/04/24 02:46:13;;;;;;;1.95;0.80;;;15.00;86.80;;;;;;5039082;28;20035;-84
2023/04/24 02:48:39;;;;;;;2.28;0.90;;;15.00;86.80;;;;;;5037844;28;20037;-83
2023/04/24 02:51:04;;;;;;;1.55;0.80;;;15.00;86.80;;;;;;5039001;28;20095;-83
2023/04/24 02:53:30;;;;;;;3.05;1.02;;;15.00;86.70;;;;;;5040098;28;20033;-83
2023/04/24 02:55:56;;;;;;;2.50;0.90;;;15.00;86.70;;;;;;5039456;28;20086;-83
2023/04/24 02:58:22;;;;;;;2.15;0.90;;;15.00;86.70;;;;;;5038821;28;20025;-83
2023/04/24 03:00:47;;;;;;;1.60;0.80;;;14.90;86.60;;;;;;5034169;28;20098;-83
2023/04/24 03:03:13;;;;;;;1.83;0.90;;;15.00;86.60;;;;;;5034861;28;20424;-83
2023/04/24 03:05:39;;;;;;;1.23;0.80;;;14.90;86.60;;;;;;5035054;28;20035;-82
2023/04/24 03:08:04;;;;;;;1.35;0.80;;;15.00;86.70;;;;;;5041663;28;20024;-84
2023/04/24 03:10:31;;;;;;;1.52;0.60;;;15.00;86.70;;;;;;5041990;28;20104;-84
2023/04/24 03:12:57;;;;;;;1.00;0.60;;;14.90;86.40;;;;;;5041971;28;20036;-84
2023/04/24 03:15:22;;;;;;;2.47;0.80;;;14.90;85.90;;;;;;5042361;28;20029;-83
2023/04/24 03:17:48;;;;;;;1.70;1.00;;;14.90;86.30;;;;;;5041371;28;20051;-83
2023/04/24 03:20:14;;;;;;;1.48;0.80;;;14.90;86.40;;;;;;5040735;28;20017;-83
2023/04/24 03:22:40;;;;;;;2.60;1.00;;;14.90;86.40;;;;;;5040855;28;20056;-83
2023/04/24 03:25:06;;;;;;;2.78;1.10;;;14.90;86.40;;;;;;5033348;28;20393;-80
2023/04/24 03:27:31;;;;;;;1.20;0.70;;;15.00;86.40;;;;;;5031454;28;20053;-82
2023/04/24 03:29:57;;;;;;;1.17;0.80;;;14.90;86.30;;;;;;5029268;28;20056;-81
2023/04/24 03:32:23;;;;;;;1.50;0.88;;;14.90;86.40;;;;;;5029615;28;20036;-81
2023/04/24 03:34:51;;;;;;;1.80;0.85;;;14.80;86.10;;;;;;5030912;28;20027;-80
2023/04/24 03:37:30;;;;;;;1.58;0.80;;;14.90;86.40;;;;;;5030425;28;20080;-81
2023/04/24 03:40:06;;;;;;;0.90;0.70;;;14.90;86.30;;;;;;5030461;28;20124;-82
2023/04/24 03:42:32;;;;;;;1.42;0.65;;;14.90;86.30;;;;;;5030825;28;20032;-83
2023/04/24 03:44:58;;;;;;;1.52;0.80;;;14.80;86.00;;;;;;5029678;28;20036;-78
2023/04/24 03:47:23;;;;;;;1.70;0.77;;;16.00;86.50;;;;;;5030126;28;20461;-79
2023/04/24 03:49:49;;;;;;;1.80;0.90;;;14.90;86.00;;;;;;5030409;28;20047;-80
2023/04/24 03:52:15;;;;;;;1.50;0.70;;;15.00;86.40;;;;;;5030582;28;20033;-80
2023/04/24 03:54:40;;;;;;;1.73;0.75;;;14.90;86.40;;;;;;5030016;28;20028;-81
2023/04/24 03:57:06;;;;;;;2.63;1.17;;;14.90;86.20;;;;;;5030403;28;20017;-80
2023/04/24 03:59:31;;;;;;;1.88;0.90;;;14.90;86.30;;;;;;5029046;28;20021;-80
2023/04/24 04:01:57;;;;;;;1.77;0.82;;;14.90;86.30;;;;;;5029953;28;20017;-83
2023/04/24 04:04:22;;;;;;;1.67;0.82;;;14.90;86.30;;;;;;5029671;28;20052;-82
2023/04/24 04:06:48;;;;;;;2.67;0.98;;;14.90;86.20;;;;;;5029578;28;20040;-79
2023/04/24 04:09:14;;;;;;;1.48;0.60;;;14.90;86.40;;;;;;5029135;28;20032;-79
2023/04/24 04:11:40;;;;;;;1.95;1.00;;;15.10;86.40;;;;;;5029332;28;20048;-80
2023/04/24 04:14:05;;;;;;;1.90;0.70;;;14.90;86.30;;;;;;5031138;28;20032;-85
2023/04/24 04:16:31;;;;;;;1.35;0.80;;;14.90;86.40;;;;;;5030302;28;20029;-84
2023/04/24 04:18:57;;;;;;;1.52;0.77;;;14.90;86.40;;;;;;5030566;28;20545;-84
2023/04/24 04:21:22;;;;;;;2.05;0.90;;;14.90;86.40;;;;;;5029719;28;20022;-83
2023/04/24 04:23:48;;;;;;;1.20;0.65;;;14.90;86.40;;;;;;5032135;28;20037;-83
2023/04/24 04:26:14;;;;;;;1.42;0.70;;;14.90;86.40;;;;;;5050637;28;20563;-84
2023/04/24 04:28:39;;;;;;;2.35;0.90;;;14.90;86.40;;;;;;5050526;28;20448;-85
2023/04/24 04:31:07;;;;;;;1.90;0.90;;;14.90;86.30;;;;;;5032788;28;20031;-84
2023/04/24 04:33:33;;;;;;;1.00;0.68;;;14.80;86.40;;;;;;5033489;28;20056;-83
2023/04/24 04:35:59;;;;;;;1.48;0.70;;;14.90;86.90;;;;;;5033319;28;20555;-83
2023/04/24 04:38:29;;;;;;;1.42;0.75;;;14.90;86.40;;;;;;5033487;28;20048;-84
2023/04/24 04:40:56;;;;;;;1.52;0.80;;;14.90;86.40;;;;;;5031463;28;20021;-84
2023/04/24 04:43:23;;;;;;;1.05;0.63;;;14.90;86.40;;;;;;5031346;28;20581;-83
2023/04/24 04:45:50;;;;;;;0.63;0.63;;;14.90;86.40;;;;;;5031485;28;20276;-83
2023/04/24 04:48:17;;;;;;;1.83;0.77;;;14.80;86.30;;;;;;5031179;28;20040;-82
2023/04/24 04:50:42;;;;;;;1.30;0.90;;;14.90;86.40;;;;;;5031315;28;20083;-82
2023/04/24 04:53:08;;;;;;;1.90;1.00;;;14.90;86.20;;;;;;5031296;28;20489;-82
2023/04/24 04:55:34;;;;;;;1.38;0.80;;;14.90;86.20;;;;;;5023352;28;20029;-87
2023/04/24 04:58:00;;;;;;;1.60;0.90;;;14.90;86.30;;;;;;5030673;28;20022;-82
2023/04/24 05:00:27;;;;;;;1.88;0.80;;;14.90;86.20;;;;;;5031632;28;20036;-84
2023/04/24 05:02:52;;;;;;;1.65;0.80;;;14.80;86.30;;;;;;5031730;28;20110;-81
2023/04/24 05:05:18;;;;;;;1.02;0.80;;;14.90;86.40;;;;;;5031317;28;20056;-84
2023/04/24 05:07:44;;;;;;;1.75;0.95;;;14.80;86.30;;;;;;5031605;28;20548;-83
2023/04/24 05:10:10;;;;;;;1.75;0.90;;;14.80;85.90;;;;;;5030714;28;20037;-87
2023/04/24 05:12:36;;;;;;;1.20;0.80;;;14.80;86.10;;;;;;5031116;28;20032;-82
2023/04/24 05:15:02;;;;;;;1.85;1.00;;;14.90;86.20;;;;;;5031075;28;20032;-84
2023/04/24 05:17:28;;;;;;;1.65;1.02;;;14.90;86.00;;;;;;5031465;28;20022;-83
2023/04/24 05:19:53;;;;;;;2.10;1.08;;;14.90;85.90;;;;;;5030719;28;20029;-84
2023/04/24 05:22:20;;;;;;;1.30;0.90;;;14.90;86.20;;;;;;5030953;28;20029;-83
2023/04/24 05:24:46;;;;;;;2.95;1.30;;;14.90;86.20;;;;;;5030812;28;20033;-83
2023/04/24 05:27:12;;;;;;;1.70;1.10;;;14.80;85.90;;;;;;5031414;28;20029;-81
2023/04/24 05:29:38;;;;;;;2.72;1.50;;;14.90;85.90;;;;;;5049066;28;20036;-85
2023/04/24 05:32:03;;;;;;;2.78;1.50;;;14.90;85.70;;;;;;5030629;28;20477;-82
2023/04/24 05:34:29;;;;;;;2.60;1.38;;;14.80;85.20;;;;;;5029945;28;20352;-83
2023/04/24 05:36:54;;;;;;;2.78;1.40;;;14.80;85.70;;;;;;5030532;28;20067;-84
2023/04/24 05:39:20;;;;;;;2.13;1.20;;;14.80;85.70;;;;;;5030557;28;20083;-84
2023/04/24 05:41:46;;;;;;;3.40;1.55;;;14.80;85.80;;;;;;5030190;28;20078;-85
2023/04/24 05:44:11;;;;;;;2.88;1.60;;;14.90;85.70;;;;;;5030709;28;20032;-84
2023/04/24 05:46:37;;;;;;;2.70;1.55;;;14.80;85.20;;;;;;5035112;28;20029;-84
2023/04/24 05:49:03;;;;;;;2.72;1.40;;;14.80;85.30;;;;;;5042870;28;20068;-84
2023/04/24 05:51:28;;;;;;;3.05;1.50;;;14.80;85.80;;;;;;5040323;28;20360;-85
2023/04/24 05:53:54;;;;;;;2.30;1.27;;;14.80;85.60;;;;;;5039426;28;20082;-85
2023/04/24 05:56:20;;;;;;;2.50;1.45;;;14.70;85.60;;;;;;5038860;28;20024;-84
2023/04/24 05:58:46;;;;;;;2.50;1.60;;;14.80;85.70;;;;;;5039011;28;20082;-83
2023/04/24 06:01:12;;;;;;;3.45;1.98;;;14.80;85.60;;;;;;5038362;28;20410;-84
2023/04/24 06:03:39;;;;;;;3.85;1.77;;;14.80;85.30;;;;;;5036054;28;20092;-85
2023/04/24 06:06:05;;;;;;;3.95;1.75;;;14.80;84.70;;;;;;5036223;28;20052;-84
2023/04/24 06:08:31;;;;;;;3.72;1.88;;;14.80;85.00;;;;;;5035395;28;20444;-85
2023/04/24 06:10:57;;;;;;;2.85;1.77;;;14.80;85.00;;;;;;5035377;28;20021;-84
2023/04/24 06:13:22;;;;;;;4.05;2.20;;;14.90;85.30;;;;;;5034317;28;20029;-83
2023/04/24 06:15:48;;;;;;;3.75;1.90;;;14.80;85.10;;;;;;5033508;28;20036;-84
2023/04/24 06:18:13;;;;;;;4.53;2.13;;;14.80;85.10;;;;;;5029631;28;20028;-82
2023/04/24 06:20:39;;;;;;;3.50;1.80;;;14.80;84.70;;;;;;5032733;28;20021;-84
2023/04/24 06:23:05;;;;;;;2.63;1.60;;;14.90;85.20;;;;;;5033538;28;20664;-82
2023/04/24 06:25:31;;;;;;;6.10;2.80;;;14.80;85.20;;;;;;5032082;28;20033;-83
2023/04/24 06:27:57;;;;;;;4.22;1.92;;;14.80;84.50;;;;;;5033148;28;20036;-83
2023/04/24 06:30:22;;;;;;;3.03;1.80;;;14.80;85.20;;;;;;5035554;28;20029;-84
2023/04/24 06:32:48;;;;;;;4.55;2.30;;;14.80;85.20;;;;;;5034690;28;20029;-85
2023/04/24 06:35:14;;;;;;;15.07;3.20;;;14.80;84.60;;;;;;5032455;28;20317;-81
2023/04/24 06:37:41;;;;;;;15.13;5.35;;;14.80;84.40;;;;;;5034093;28;20028;-83
2023/04/24 06:40:07;;;;;;;11.68;5.25;;;14.80;82.60;;;;;;5041767;28;20029;-85
2023/04/24 06:42:33;;;;;;;12.65;6.30;;;14.70;82.00;;;;;;5037326;28;20029;-85
2023/04/24 06:44:58;;;;;;;12.27;6.30;;;14.80;82.00;;;;;;5041269;28;20039;-85
2023/04/24 06:47:27;;;;;;;16.08;6.05;;;14.80;82.00;;;;;;5039162;28;20128;-84
2023/04/24 06:49:53;;;;;;;11.90;5.80;;;14.80;82.40;;;;;;5036728;28;20128;-84
2023/04/24 06:52:19;;;;;;;9.73;5.20;;;14.80;82.10;;;;;;5035766;28;20052;-85
2023/04/24 06:54:45;;;;;;;12.15;6.22;;;14.80;82.10;;;;;;5041211;28;20021;-87
2023/04/24 06:57:10;;;;;;;12.10;5.82;;;14.80;82.20;;;;;;5042040;28;20032;-86
2023/04/24 06:59:36;;;;;;;10.95;5.05;;;14.80;82.30;;;;;;5041217;28;20075;-86
2023/04/24 07:02:02;;;;;;;13.02;5.65;;;14.80;82.40;;;;;;5041642;28;20112;-86
2023/04/24 07:04:28;;;;;;;13.80;5.70;;;14.80;82.50;;;;;;5041346;28;20588;-86
2023/04/24 07:06:55;;;;;;;9.90;5.43;;;14.80;82.80;;;;;;5059537;28;20033;-86
2023/04/24 07:09:22;;;;;;;10.38;5.30;;;14.80;82.60;;;;;;5040834;28;20021;-86
2023/04/24 07:11:48;;;;;;;10.50;5.63;;;14.80;82.80;;;;;;5037033;28;20108;-85
2023/04/24 07:14:13;;;;;;;10.35;5.50;;;14.80;83.00;;;;;;5035817;28;20067;-86
2023/04/24 07:16:39;;;;;;;10.07;5.53;;;14.80;83.10;;;;;;5057793;28;20381;-86
2023/04/24 07:19:06;;;;;;;10.15;4.72;;;14.80;83.30;;;;;;5039741;28;20025;-86
2023/04/24 07:21:31;;;;;;;10.82;5.25;;;14.80;83.40;;;;;;5039265;28;20021;-85
2023/04/24 07:23:58;;;;;;;10.23;5.30;;;14.80;83.10;;;;;;5038893;28;20448;-86
2023/04/24 07:26:23;;;;;;;9.48;5.10;;;14.80;83.20;;;;;;5034748;28;20024;-86
2023/04/24 07:28:49;;;;;;;10.85;5.25;;;14.80;83.50;;;;;;5036477;28;20021;-87
2023/04/24 07:31:15;;;;;;;8.88;5.38;;;14.80;83.50;;;;;;5055625;28;20055;-85
2023/04/24 07:33:40;;;;;;;9.55;5.45;;;14.80;83.50;;;;;;5033384;28;20079;-85
2023/04/24 07:36:06;;;;;;;8.60;5.28;;;14.80;83.70;;;;;;5024176;28;20025;-85
2023/04/24 07:38:31;;;;;;;11.02;5.38;;;14.80;83.70;;;;;;5017720;28;20083;-83
2023/04/24 07:40:57;;;;;;;13.68;6.18;;;14.80;83.30;;;;;;5013694;28;20018;-84
2023/04/24 07:43:23;;;;;;;13.35;6.13;;;14.80;83.20;;;;;;5017352;28;20025;-85
2023/04/24 07:45:50;;;;;;;18.35;6.53;;;14.80;82.20;;;;;;5017850;28;20029;-83
2023/04/24 07:48:17;;;;;;;18.17;6.65;;;14.80;82.20;;;;;;5018140;28;20033;-83
2023/04/24 07:50:43;;;;;;;13.60;6.43;;;14.70;81.80;;;;;;5014294;28;20490;-86
2023/04/24 07:53:09;;;;;;;17.95;7.60;;;14.80;81.80;;;;;;5014025;28;20079;-85
2023/04/24 07:55:35;;;;;;;19.55;6.90;;;14.70;81.70;;;;;;5016808;28;20021;-84
2023/04/24 07:58:01;;;;;;;14.38;6.72;;;14.70;81.30;;;;;;5019637;28;20060;-83
2023/04/24 08:00:26;;;;;;;15.70;6.80;;;14.70;81.50;;;;;;5019436;28;20037;-82
2023/04/24 08:02:52;;;;;;;13.82;6.82;;;14.70;81.40;;;;;;5019896;28;20025;-82
2023/04/24 08:05:18;;;;;;;15.20;6.57;;;14.70;81.60;;;;;;5020123;28;20036;-81
2023/04/24 08:07:45;;;;;;;15.88;6.90;;;14.70;81.60;;;;;;5018537;28;20029;-84
2023/04/24 08:10:11;;;;;;;15.88;7.35;;;14.70;81.70;;;;;;5019248;28;20160;-84
2023/04/24 08:12:37;;;;;;;14.98;6.60;;;14.70;81.80;;;;;;5019729;28;20079;-85
2023/04/24 08:15:04;;;;;;;10.70;6.35;;;14.70;81.80;;;;;;5039092;28;20333;-84
2023/04/24 08:17:30;;;;;;;15.00;6.47;;;14.80;82.00;;;;;;5018890;28;20486;-84
2023/04/24 08:20:01;;;;;;;12.68;7.00;;;14.80;82.00;;;;;;5017820;28;20082;-83
2023/04/24 08:22:27;;;;;;;16.63;6.93;;;14.70;81.80;;;;;;5019978;28;20060;-84
2023/04/24 08:24:53;;;;;;;13.80;6.78;;;14.70;81.90;;;;;;5018303;28;20034;-83
2023/04/24 08:27:18;;;;;;;15.95;7.05;;;14.70;81.80;;;;;;5020038;28;20547;-84
2023/04/24 08:29:44;;;;;;;12.70;6.43;;;14.70;82.00;;;;;;5038017;28;20037;-85
2023/04/24 08:32:10;;;;;;;15.30;5.95;;;14.70;82.10;;;;;;5040698;28;20044;-87
2023/04/24 08:34:35;;;;;;;11.48;6.28;;;14.70;81.80;;;;;;5037861;28;20029;-85
2023/04/24 08:37:01;;;;;;;11.07;5.75;;;14.70;82.10;;;;;;5055343;28;20035;-84
2023/04/24 08:39:26;;;;;;;18.20;6.43;;;14.70;82.10;;;;;;5038276;28;20048;-85
2023/04/24 08:41:53;;;;;;;13.18;5.53;;;14.80;82.10;;;;;;5037713;28;20441;-86
2023/04/24 08:44:19;;;;;;;10.07;5.43;;;14.80;82.10;;;;;;5038061;28;20048;-84
2023/04/24 08:46:47;;;;;;;10.88;5.10;;;14.80;82.30;;;;;;5036640;28;20029;-85
2023/04/24 08:49:16;;;;;;;8.73;4.90;;;14.80;82.00;;;;;;5038093;28;20036;-85
2023/04/24 08:51:41;;;;;;;8.40;4.95;;;14.80;82.30;;;;;;5036467;28;20276;-86
2023/04/24 08:54:08;;;;;;;11.75;5.38;;;14.80;82.30;;;;;;5036851;28;20508;-86
2023/04/24 08:56:37;;;;;;;8.75;5.32;;;14.80;82.40;;;;;;5037220;28;20489;-86
2023/04/24 08:59:04;;;;;;;9.82;4.97;;;14.80;82.70;;;;;;5037469;28;20033;-86
2023/04/24 09:01:33;;;;;;;8.55;4.93;;;14.80;82.20;;;;;;5036218;28;20025;-87
2023/04/24 09:04:02;;;;;;;8.48;4.47;;;14.80;81.80;;;;;;5036586;28;20029;-86
2023/04/24 09:06:28;;;;;;;9.98;4.45;;;14.80;82.00;;;;;;5036591;28;20025;-86
2023/04/24 09:08:55;;;;;;;7.30;4.70;;;14.80;82.40;;;;;;5036252;28;20113;-86
2023/04/24 09:11:24;;;;;;;7.90;4.50;;;14.70;82.50;;;;;;5036214;28;20025;-85
2023/04/24 09:13:49;;;;;;;8.00;4.05;;;14.80;82.60;;;;;;5036815;28;20028;-87
2023/04/24 09:16:15;;;;;;;8.15;4.78;;;14.70;82.00;;;;;;5037086;28;20025;-86
2023/04/24 09:18:41;;;;;;;8.43;4.47;;;14.80;82.50;;;;;;5036267;28;20078;-86
2023/04/24 09:21:08;;;;;;;8.70;4.55;;;14.70;82.60;;;;;;5037532;28;20021;-87
2023/04/24 09:23:34;;;;;;;8.02;4.47;;;14.80;82.40;;;;;;5046585;28;20052;-86
2023/04/24 09:26:01;;;;;;;7.65;4.53;;;14.70;82.60;;;;;;5064769;28;20236;-86
2023/04/24 09:28:34;;;;;;;8.07;4.05;;;14.80;82.80;;;;;;5035565;28;20120;-87
2023/04/24 09:31:07;;;;;;;6.68;4.13;;;14.80;82.70;;;;;;5026480;28;20501;-87
2023/04/24 09:33:33;;;;;;;11.40;4.55;;;14.70;82.70;;;;;;5025940;28;20036;-86
2023/04/24 09:35:59;;;;;;;7.60;3.95;;;14.80;82.80;;;;;;5025967;28;20029;-86
2023/04/24 09:38:36;;;;;;;8.40;4.57;;;14.80;82.80;;;;;;5024804;28;20029;-86
2023/04/24 09:41:04;;;;;;;8.52;4.10;;;14.80;83.30;;;;;;5022588;28;20025;-86
2023/04/24 09:43:30;;;;;;;8.18;4.18;;;14.80;82.50;;;;;;5023228;28;20032;-86
2023/04/24 09:45:58;;;;;;;6.68;3.83;;;14.80;82.50;;;;;;5019055;28;20084;-86
2023/04/24 09:48:34;;;;;;;7.43;3.92;;;14.80;82.40;;;;;;5016097;28;20029;-85
2023/04/24 09:51:03;;;;;;;7.20;3.80;;;14.80;82.70;;;;;;5021083;28;20032;-87
2023/04/24 09:53:30;;;;;;;7.43;4.07;;;14.80;82.70;;;;;;5023978;28;20029;-87
2023/04/24 09:55:56;;;;;;;5.22;3.25;;;14.80;82.70;;;;;;5022989;28;20025;-87
2023/04/24 09:58:28;;;;;;;6.72;4.10;;;14.80;82.70;;;;;;5022870;28;20095;-86
2023/04/24 10:00:55;;;;;;;7.70;3.67;;;14.80;82.80;;;;;;5039447;28;20032;-83
2023/04/24 10:03:23;;;;;;;6.93;3.60;;;14.80;82.70;;;;;;5020063;28;20474;-83
2023/04/24 10:05:51;;;;;;;6.03;3.25;;;14.80;82.70;;;;;;5024058;28;20029;-80
2023/04/24 10:08:16;;;;;;;6.05;2.97;;;14.80;82.10;;;;;;5039697;28;20504;-85
2023/04/24 10:10:45;;;;;;;5.00;2.92;;;14.80;82.50;;;;;;5040522;28;20029;-84
2023/04/24 10:13:13;;;;;;;5.35;2.95;;;14.80;82.60;;;;;;5041522;28;20021;-83
2023/04/24 10:15:40;;;;;;;5.45;3.20;;;14.80;83.20;;;;;;5040276;28;20481;-85
2023/04/24 10:18:06;;;;;;;5.32;2.85;;;14.80;82.70;;;;;;5043742;28;20025;-84
2023/04/24 10:20:33;;;;;;;5.70;3.35;;;14.90;82.80;;;;;;5042148;28;20024;-85
2023/04/24 10:22:59;;;;;;;6.78;3.53;;;14.80;82.80;;;;;;5043232;28;20013;-84
2023/04/24 10:25:28;;;;;;;6.40;3.20;;;14.80;82.80;;;;;;5060201;28;20017;-85
2023/04/24 10:27:59;;;;;;;9.50;2.92;;;14.80;83.00;;;;;;5040737;28;20388;-84
2023/04/24 10:30:34;;;;;;;7.33;2.77;;;14.80;81.30;;;;;;5040172;28;20385;-84
2023/04/24 10:33:07;;;;;;;5.75;2.70;;;14.80;81.00;;;;;;5042006;28;20123;-84
2023/04/24 10:35:37;;;;;;;7.50;2.60;;;14.80;80.90;;;;;;5041797;28;20028;-84
2023/04/24 10:38:07;;;;;;;5.35;2.42;;;14.80;81.10;;;;;;5041509;28;20021;-84
2023/04/24 10:40:35;;;;;;;8.40;2.75;;;14.80;81.10;;;;;;5040201;28;20013;-83
2023/04/24 10:43:10;;;;;;;6.03;2.53;;;14.80;81.30;;;;;;5039627;28;20013;-84
2023/04/24 10:45:37;;;;;;;6.32;2.88;;;14.80;81.50;;;;;;5040510;28;20048;-84
2023/04/24 10:48:13;;;;;;;7.13;2.80;;;14.80;81.70;;;;;;5057828;28;20673;-83
2023/04/24 10:51:05;;;;;;;5.78;2.60;;;14.80;81.70;;;;;;5038906;28;20052;-84
2023/04/24 10:53:31;;;;;;;5.65;2.58;;;14.80;81.90;;;;;;5035918;28;20025;-83
2023/04/24 10:56:04;;;;;;;5.88;3.03;;;14.80;82.00;;;;;;5057466;28;20031;-85
2023/04/24 10:58:47;;;;;;;5.90;2.60;;;14.80;82.10;;;;;;5039892;28;20020;-84
2023/04/24 11:01:31;;;;;;;4.95;2.50;;;14.80;82.30;;;;;;5039281;28;20052;-83
2023/04/24 11:03:59;;;;;;;5.53;2.72;;;14.80;82.40;;;;;;5036261;28;20013;-83
2023/04/24 11:06:37;;;;;;;6.20;2.75;;;14.80;82.40;;;;;;5037146;28;20474;-82
2023/04/24 11:09:05;;;;;;;5.13;2.53;;;14.90;82.40;;;;;;5039498;28;20074;-81
2023/04/24 11:11:31;;;;;;;4.95;2.65;;;14.90;82.30;;;;;;5039137;28;20025;-81
2023/04/24 11:13:57;;;;;;;7.32;2.60;;;14.90;82.40;;;;;;5039177;28;20116;-83
2023/04/24 11:16:28;;;;;;;5.10;2.50;;;14.90;82.50;;;;;;5057319;28;20020;-82
2023/04/24 11:19:02;;;;;;;5.00;2.40;;;14.80;82.60;;;;;;5039203;28;20047;-82
2023/04/24 11:21:42;;;;;;;3.90;2.33;;;14.90;82.60;;;;;;5039381;28;20017;-83
2023/04/24 11:24:36;;;;;;;20.38;3.70;;;14.90;82.70;;;;;;5055693;28;20501;-83
2023/04/24 11:27:19;;;;;;;40.97;4.95;;;14.80;82.70;;;;;;5038239;28;20033;-83
2023/04/24 11:30:00;;;;;;;25.30;3.92;;;14.80;82.30;;;;;;5055572;28;20021;-83
2023/04/24 11:32:36;;;;;;;34.10;4.45;;;14.80;82.20;;;;;;5034150;28;20064;-82
2023/04/24 11:35:05;;;;;;;21.27;3.75;;;14.80;82.20;;;;;;5037484;28;20104;-82
2023/04/24 11:37:41;;;;;;;24.10;3.53;;;14.80;82.30;;;;;;5037409;28;20015;-83
2023/04/24 11:40:10;;;;;;;17.33;3.47;;;14.80;82.30;;;;;;5037418;28;20013;-82
2023/04/24 11:42:43;;;;;;;13.05;2.92;;;14.80;82.40;;;;;;5036761;28;20013;-82
2023/04/24 11:45:20;;;;;;;14.02;3.20;;;14.80;82.60;;;;;;5036829;28;20024;-79
2023/04/24 11:47:46;;;;;;;15.52;3.03;;;14.80;82.50;;;;;;5053533;28;20021;-81
2023/04/24 11:50:13;;;;;;;17.67;3.45;;;14.80;82.50;;;;;;5034572;28;20119;-80
2023/04/24 11:52:41;;;;;;;10.00;2.90;;;14.80;82.60;;;;;;5034424;28;20032;-80
2023/04/24 11:55:13;;;;;;;11.70;2.80;;;14.80;82.50;;;;;;5035332;28;20025;-82
2023/04/24 11:57:43;;;;;;;12.93;2.83;;;14.80;82.60;;;;;;5054262;28;20028;-82
2023/04/24 12:00:15;;;;;;;12.02;2.55;;;14.80;82.60;;;;;;5024954;28;20103;-78
2023/04/24 12:02:41;;;;;;;17.25;3.55;;;14.80;82.70;;;;;;5053303;28;20526;-82
2023/04/24 12:05:07;;;;;;;11.70;3.05;;;14.80;82.60;;;;;;5053350;28;20029;-81
2023/04/24 12:07:42;;;;;;;10.48;2.72;;;14.80;82.70;;;;;;5034576;28;20016;-81
2023/04/24 12:10:09;;;;;;;11.57;2.58;;;14.80;82.80;;;;;;5034464;28;20028;-81
2023/04/24 12:12:34;;;;;;;10.38;2.45;;;14.80;82.90;;;;;;5035655;28;20017;-83
2023/04/24 12:15:01;;;;;;;10.07;2.95;;;14.80;82.80;;;;;;5035240;28;20028;-82
2023/04/24 12:17:32;;;;;;;14.25;2.65;;;14.80;83.40;;;;;;5034189;28;20075;-83
2023/04/24 12:20:06;;;;;;;7.70;2.47;;;14.70;82.80;;;;;;5034296;28;20017;-83
2023/04/24 12:22:47;;;;;;;10.05;2.88;;;14.80;82.90;;;;;;5034964;28;20358;-82
2023/04/24 12:25:18;;;;;;;15.30;2.58;;;14.70;82.90;;;;;;5053564;28;20097;-83
2023/04/24 12:27:45;;;;;;;11.75;2.50;;;14.80;83.00;;;;;;5035160;28;20420;-78
2023/04/24 12:30:13;;;;;;;10.05;2.20;;;14.80;82.90;;;;;;5052156;28;20048;-82
2023/04/24 12:32:49;;;;;;;8.35;2.20;;;14.70;82.80;;;;;;5034846;28;20397;-83
2023/04/24 12:35:23;;;;;;;10.77;2.70;;;14.70;82.60;;;;;;5052456;28;20025;-82
2023/04/24 12:37:49;;;;;;;10.77;2.40;;;14.80;82.60;;;;;;5034030;28;20021;-83
2023/04/24 12:40:16;;;;;;;13.65;2.55;;;14.80;82.60;;;;;;5034061;28;20373;-83
2023/04/24 12:42:44;;;;;;;8.82;1.92;;;14.80;82.50;;;;;;5034426;28;20021;-81